sensor_id;sensor_type;location;lat;lon;timestamp;temperature;humidity
802;DHT22;383;48.766;9.270;2023-07-31T00:01:39;16.00;90.90
802;DHT22;383;48.766;9.270;2023-07-31T00:04:05;16.00;90.70
802;DHT22;383;48.766;9.270;2023-07-31T00:06:32;16.00;90.90
802;DHT22;383;48.766;9.270;2023-07-31T00:08:59;16.00;91.00
802;DHT22;383;48.766;9.270;2023-07-31T00:11:25;16.00;91.10
802;DHT22;383;48.766;9.270;2023-07-31T00:13:54;16.00;91.00
802;DHT22;383;48.766;9.270;2023-07-31T00:16:21;15.90;91.40
802;DHT22;383;48.766;9.270;2023-07-31T00:18:47;15.90;91.40
802;DHT22;383;48.766;9.270;2023-07-31T00:21:14;15.90;91.50
802;DHT22;383;48.766;9.270;2023-07-31T00:23:41;15.90;91.50
802;DHT22;383;48.766;9.270;2023-07-31T00:26:07;16.00;91.10
802;DHT22;383;48.766;9.270;2023-07-31T00:28:34;16.10;90.80
802;DHT22;383;48.766;9.270;2023-07-31T00:31:02;16.00;90.80
802;DHT22;383;48.766;9.270;2023-07-31T00:33:31;16.00;91.10
802;DHT22;383;48.766;9.270;2023-07-31T00:35:57;15.90;91.30
802;DHT22;383;48.766;9.270;2023-07-31T00:38:24;15.90;91.40
802;DHT22;383;48.766;9.270;2023-07-31T00:40:51;15.80;91.50
802;DHT22;383;48.766;9.270;2023-07-31T00:43:17;15.80;91.60
802;DHT22;383;48.766;9.270;2023-07-31T00:45:44;15.80;91.90
802;DHT22;383;48.766;9.270;2023-07-31T00:48:12;15.80;91.90
802;DHT22;383;48.766;9.270;2023-07-31T00:50:39;15.80;91.80
802;DHT22;383;48.766;9.270;2023-07-31T00:53:06;15.80;91.90
802;DHT22;383;48.766;9.270;2023-07-31T00:55:33;15.80;91.80
802;DHT22;383;48.766;9.270;2023-07-31T00:58:00;15.80;91.80
802;DHT22;383;48.766;9.270;2023-07-31T01:00:26;15.70;92.00
802;DHT22;383;48.766;9.270;2023-07-31T01:02:53;15.70;92.00
802;DHT22;383;48.766;9.270;2023-07-31T01:05:27;15.60;92.00
802;DHT22;383;48.766;9.270;2023-07-31T01:07:59;15.50;92.30
802;DHT22;383;48.766;9.270;2023-07-31T01:10:37;15.40;92.90
802;DHT22;383;48.766;9.270;2023-07-31T01:13:08;15.30;93.00
802;DHT22;383;48.766;9.270;2023-07-31T01:15:36;15.20;93.60
802;DHT22;383;48.766;9.270;2023-07-31T01:18:04;15.20;93.70
802;DHT22;383;48.766;9.270;2023-07-31T01:20:33;15.20;93.50
802;DHT22;383;48.766;9.270;2023-07-31T01:23:22;15.20;94.00
802;DHT22;383;48.766;9.270;2023-07-31T01:26:03;15.20;94.20
802;DHT22;383;48.766;9.270;2023-07-31T01:28:35;15.20;94.20
802;DHT22;383;48.766;9.270;2023-07-31T01:31:07;15.20;94.00
802;DHT22;383;48.766;9.270;2023-07-31T01:33:36;15.20;93.60
802;DHT22;383;48.766;9.270;2023-07-31T01:36:04;15.20;93.60
802;DHT22;383;48.766;9.270;2023-07-31T01:38:30;15.30;93.40
802;DHT22;383;48.766;9.270;2023-07-31T01:40:58;15.20;93.70
802;DHT22;383;48.766;9.270;2023-07-31T01:43:25;15.20;93.70
802;DHT22;383;48.766;9.270;2023-07-31T01:45:52;15.20;93.50
802;DHT22;383;48.766;9.270;2023-07-31T01:48:19;15.20;93.60
802;DHT22;383;48.766;9.270;2023-07-31T01:50:45;15.20;93.80
802;DHT22;383;48.766;9.270;2023-07-31T01:53:12;15.10;93.90
802;DHT22;383;48.766;9.270;2023-07-31T01:55:39;15.10;94.00
802;DHT22;383;48.766;9.270;2023-07-31T01:58:07;15.10;94.10
802;DHT22;383;48.766;9.270;2023-07-31T02:00:33;15.10;94.30
802;DHT22;383;48.766;9.270;2023-07-31T02:03:00;15.20;94.20
802;DHT22;383;48.766;9.270;2023-07-31T02:05:27;15.20;93.80
802;DHT22;383;48.766;9.270;2023-07-31T02:07:53;15.20;93.70
802;DHT22;383;48.766;9.270;2023-07-31T02:10:20;15.20;93.80
802;DHT22;383;48.766;9.270;2023-07-31T02:12:47;15.20;93.90
802;DHT22;383;48.766;9.270;2023-07-31T02:15:15;15.20;93.70
802;DHT22;383;48.766;9.270;2023-07-31T02:17:41;15.20;93.60
802;DHT22;383;48.766;9.270;2023-07-31T02:20:09;15.10;93.80
802;DHT22;383;48.766;9.270;2023-07-31T02:22:35;15.10;94.30
802;DHT22;383;48.766;9.270;2023-07-31T02:25:02;15.10;94.10
802;DHT22;383;48.766;9.270;2023-07-31T02:27:29;15.00;94.50
802;DHT22;383;48.766;9.270;2023-07-31T02:29:56;15.00;94.20
802;DHT22;383;48.766;9.270;2023-07-31T02:32:26;15.00;94.40
802;DHT22;383;48.766;9.270;2023-07-31T02:34:52;15.00;94.70
802;DHT22;383;48.766;9.270;2023-07-31T02:37:19;15.00;94.70
802;DHT22;383;48.766;9.270;2023-07-31T02:39:46;15.00;94.50
802;DHT22;383;48.766;9.270;2023-07-31T02:42:12;15.10;94.60
802;DHT22;383;48.766;9.270;2023-07-31T02:44:39;15.10;94.00
802;DHT22;383;48.766;9.270;2023-07-31T02:47:06;15.20;93.70
802;DHT22;383;48.766;9.270;2023-07-31T02:49:34;15.20;93.60
802;DHT22;383;48.766;9.270;2023-07-31T02:52:00;15.20;93.50
802;DHT22;383;48.766;9.270;2023-07-31T02:54:27;15.10;94.00
802;DHT22;383;48.766;9.270;2023-07-31T02:56:54;15.10;93.70
802;DHT22;383;48.766;9.270;2023-07-31T02:59:21;15.10;94.00
802;DHT22;383;48.766;9.270;2023-07-31T03:01:47;15.10;94.00
802;DHT22;383;48.766;9.270;2023-07-31T03:04:14;15.20;94.00
802;DHT22;383;48.766;9.270;2023-07-31T03:06:42;15.20;94.20
802;DHT22;383;48.766;9.270;2023-07-31T03:09:09;15.20;93.80
802;DHT22;383;48.766;9.270;2023-07-31T03:11:35;15.20;93.80
802;DHT22;383;48.766;9.270;2023-07-31T03:14:02;15.20;93.80
802;DHT22;383;48.766;9.270;2023-07-31T03:16:29;15.20;93.00
802;DHT22;383;48.766;9.270;2023-07-31T03:18:55;15.20;93.10
802;DHT22;383;48.766;9.270;2023-07-31T03:21:22;15.30;93.10
802;DHT22;383;48.766;9.270;2023-07-31T03:23:50;15.30;92.90
802;DHT22;383;48.766;9.270;2023-07-31T03:26:17;15.30;92.60
802;DHT22;383;48.766;9.270;2023-07-31T03:28:44;15.40;92.40
802;DHT22;383;48.766;9.270;2023-07-31T03:31:11;15.40;92.10
802;DHT22;383;48.766;9.270;2023-07-31T03:33:38;15.50;91.80
802;DHT22;383;48.766;9.270;2023-07-31T03:36:04;15.60;91.60
802;DHT22;383;48.766;9.270;2023-07-31T03:38:32;15.60;91.10
802;DHT22;383;48.766;9.270;2023-07-31T03:41:00;15.70;91.30
802;DHT22;383;48.766;9.270;2023-07-31T03:43:27;15.70;91.10
802;DHT22;383;48.766;9.270;2023-07-31T03:45:54;15.70;91.10
802;DHT22;383;48.766;9.270;2023-07-31T03:48:21;15.70;90.80
802;DHT22;383;48.766;9.270;2023-07-31T03:50:48;15.70;90.90
802;DHT22;383;48.766;9.270;2023-07-31T03:53:14;15.70;90.80
802;DHT22;383;48.766;9.270;2023-07-31T03:55:41;15.70;90.90
802;DHT22;383;48.766;9.270;2023-07-31T03:58:09;15.70;91.00
802;DHT22;383;48.766;9.270;2023-07-31T04:00:36;15.70;91.20
802;DHT22;383;48.766;9.270;2023-07-31T04:03:02;15.80;91.20
802;DHT22;383;48.766;9.270;2023-07-31T04:05:31;15.80;90.20
802;DHT22;383;48.766;9.270;2023-07-31T04:07:57;15.80;91.00
802;DHT22;383;48.766;9.270;2023-07-31T04:10:24;15.80;91.10
802;DHT22;383;48.766;9.270;2023-07-31T04:12:51;15.80;91.20
802;DHT22;383;48.766;9.270;2023-07-31T04:15:19;15.80;91.00
802;DHT22;383;48.766;9.270;2023-07-31T04:17:46;15.80;91.40
802;DHT22;383;48.766;9.270;2023-07-31T04:20:12;15.90;91.00
802;DHT22;383;48.766;9.270;2023-07-31T04:22:39;15.90;90.60
802;DHT22;383;48.766;9.270;2023-07-31T04:25:06;16.00;90.20
802;DHT22;383;48.766;9.270;2023-07-31T04:27:33;16.10;90.10
802;DHT22;383;48.766;9.270;2023-07-31T04:29:59;16.20;89.20
802;DHT22;383;48.766;9.270;2023-07-31T04:32:27;16.30;88.80
802;DHT22;383;48.766;9.270;2023-07-31T04:34:55;16.30;89.20
802;DHT22;383;48.766;9.270;2023-07-31T04:37:21;16.40;88.20
802;DHT22;383;48.766;9.270;2023-07-31T04:39:48;16.50;87.60
802;DHT22;383;48.766;9.270;2023-07-31T04:42:15;16.50;87.60
802;DHT22;383;48.766;9.270;2023-07-31T04:44:41;16.60;88.00
802;DHT22;383;48.766;9.270;2023-07-31T04:47:08;16.60;87.60
802;DHT22;383;48.766;9.270;2023-07-31T04:49:36;16.70;87.60
802;DHT22;383;48.766;9.270;2023-07-31T04:52:04;16.70;86.80
802;DHT22;383;48.766;9.270;2023-07-31T04:54:30;16.80;86.40
802;DHT22;383;48.766;9.270;2023-07-31T04:56:57;16.90;86.50
802;DHT22;383;48.766;9.270;2023-07-31T04:59:24;16.90;85.70
802;DHT22;383;48.766;9.270;2023-07-31T05:01:50;17.00;86.10
802;DHT22;383;48.766;9.270;2023-07-31T05:04:17;17.10;85.50
802;DHT22;383;48.766;9.270;2023-07-31T05:06:45;17.10;85.30
802;DHT22;383;48.766;9.270;2023-07-31T05:09:12;17.10;85.30
802;DHT22;383;48.766;9.270;2023-07-31T05:11:38;17.20;84.30
802;DHT22;383;48.766;9.270;2023-07-31T05:14:08;17.20;84.80
802;DHT22;383;48.766;9.270;2023-07-31T05:16:34;17.20;85.10
802;DHT22;383;48.766;9.270;2023-07-31T05:19:01;17.20;84.90
802;DHT22;383;48.766;9.270;2023-07-31T05:21:28;17.20;85.20
802;DHT22;383;48.766;9.270;2023-07-31T05:23:56;17.30;84.80
802;DHT22;383;48.766;9.270;2023-07-31T05:26:22;17.30;84.30
802;DHT22;383;48.766;9.270;2023-07-31T05:28:49;17.30;84.10
802;DHT22;383;48.766;9.270;2023-07-31T05:31:16;17.30;84.10
802;DHT22;383;48.766;9.270;2023-07-31T05:33:43;17.30;84.50
802;DHT22;383;48.766;9.270;2023-07-31T05:36:09;17.40;84.30
802;DHT22;383;48.766;9.270;2023-07-31T05:38:36;17.40;83.90
802;DHT22;383;48.766;9.270;2023-07-31T05:41:04;17.40;84.40
802;DHT22;383;48.766;9.270;2023-07-31T05:43:31;17.40;84.90
802;DHT22;383;48.766;9.270;2023-07-31T05:45:57;17.40;84.50
802;DHT22;383;48.766;9.270;2023-07-31T05:48:24;17.50;84.80
802;DHT22;383;48.766;9.270;2023-07-31T05:50:51;17.60;85.10
802;DHT22;383;48.766;9.270;2023-07-31T05:53:17;17.60;84.90
802;DHT22;383;48.766;9.270;2023-07-31T05:55:44;17.80;83.70
802;DHT22;383;48.766;9.270;2023-07-31T05:58:12;18.00;83.20
802;DHT22;383;48.766;9.270;2023-07-31T06:00:39;18.10;83.00
802;DHT22;383;48.766;9.270;2023-07-31T06:03:06;18.20;83.00
802;DHT22;383;48.766;9.270;2023-07-31T06:05:33;18.30;82.40
802;DHT22;383;48.766;9.270;2023-07-31T06:08:00;18.40;81.80
802;DHT22;383;48.766;9.270;2023-07-31T06:10:27;18.40;81.20
802;DHT22;383;48.766;9.270;2023-07-31T06:12:53;18.50;81.40
802;DHT22;383;48.766;9.270;2023-07-31T06:15:21;18.50;80.70
802;DHT22;383;48.766;9.270;2023-07-31T06:17:48;18.60;80.80
802;DHT22;383;48.766;9.270;2023-07-31T06:20:15;18.60;81.40
802;DHT22;383;48.766;9.270;2023-07-31T06:22:42;18.80;81.60
802;DHT22;383;48.766;9.270;2023-07-31T06:25:08;18.80;81.00
802;DHT22;383;48.766;9.270;2023-07-31T06:27:35;19.00;80.80
802;DHT22;383;48.766;9.270;2023-07-31T06:30:02;19.00;80.60
802;DHT22;383;48.766;9.270;2023-07-31T06:32:30;19.20;80.60
802;DHT22;383;48.766;9.270;2023-07-31T06:34:57;19.30;78.20
802;DHT22;383;48.766;9.270;2023-07-31T06:37:23;19.40;78.60
802;DHT22;383;48.766;9.270;2023-07-31T06:39:50;19.60;76.30
802;DHT22;383;48.766;9.270;2023-07-31T06:42:17;19.70;75.20
802;DHT22;383;48.766;9.270;2023-07-31T06:44:43;19.70;75.80
802;DHT22;383;48.766;9.270;2023-07-31T06:47:10;19.90;75.80
802;DHT22;383;48.766;9.270;2023-07-31T06:49:38;20.10;75.70
802;DHT22;383;48.766;9.270;2023-07-31T06:52:05;20.10;73.40
802;DHT22;383;48.766;9.270;2023-07-31T06:54:32;20.10;73.30
802;DHT22;383;48.766;9.270;2023-07-31T06:56:59;20.30;71.90
802;DHT22;383;48.766;9.270;2023-07-31T06:59:25;20.30;72.80
802;DHT22;383;48.766;9.270;2023-07-31T07:01:52;20.40;72.30
802;DHT22;383;48.766;9.270;2023-07-31T07:04:19;20.50;72.30
802;DHT22;383;48.766;9.270;2023-07-31T07:06:47;20.60;71.10
802;DHT22;383;48.766;9.270;2023-07-31T07:09:14;20.80;70.70
802;DHT22;383;48.766;9.270;2023-07-31T07:11:40;20.90;69.20
802;DHT22;383;48.766;9.270;2023-07-31T07:14:08;21.10;68.90
802;DHT22;383;48.766;9.270;2023-07-31T07:16:35;21.20;70.00
802;DHT22;383;48.766;9.270;2023-07-31T07:19:02;21.30;68.80
802;DHT22;383;48.766;9.270;2023-07-31T07:21:28;21.40;69.20
802;DHT22;383;48.766;9.270;2023-07-31T07:23:56;21.60;68.80
802;DHT22;383;48.766;9.270;2023-07-31T07:26:23;21.90;66.70
802;DHT22;383;48.766;9.270;2023-07-31T07:28:50;22.10;64.90
802;DHT22;383;48.766;9.270;2023-07-31T07:31:16;22.20;65.80
802;DHT22;383;48.766;9.270;2023-07-31T07:33:43;22.50;65.60
802;DHT22;383;48.766;9.270;2023-07-31T07:36:10;22.70;64.20
802;DHT22;383;48.766;9.270;2023-07-31T07:38:38;22.80;62.30
802;DHT22;383;48.766;9.270;2023-07-31T07:41:06;22.80;62.60
802;DHT22;383;48.766;9.270;2023-07-31T07:43:33;22.80;63.40
802;DHT22;383;48.766;9.270;2023-07-31T07:45:59;22.80;63.10
802;DHT22;383;48.766;9.270;2023-07-31T07:48:26;22.90;62.50
802;DHT22;383;48.766;9.270;2023-07-31T07:50:52;22.70;61.90
802;DHT22;383;48.766;9.270;2023-07-31T07:53:19;22.80;62.60
802;DHT22;383;48.766;9.270;2023-07-31T07:55:46;22.70;63.00
802;DHT22;383;48.766;9.270;2023-07-31T07:58:14;22.70;63.90
802;DHT22;383;48.766;9.270;2023-07-31T08:00:41;22.70;61.80
802;DHT22;383;48.766;9.270;2023-07-31T08:03:07;22.60;61.80
802;DHT22;383;48.766;9.270;2023-07-31T08:05:35;22.60;62.30
802;DHT22;383;48.766;9.270;2023-07-31T08:08:01;22.80;61.80
802;DHT22;383;48.766;9.270;2023-07-31T08:10:28;23.10;60.90
802;DHT22;383;48.766;9.270;2023-07-31T08:12:55;23.30;61.10
802;DHT22;383;48.766;9.270;2023-07-31T08:15:23;23.40;60.50
802;DHT22;383;48.766;9.270;2023-07-31T08:17:50;23.30;59.80
802;DHT22;383;48.766;9.270;2023-07-31T08:20:16;23.20;59.60
802;DHT22;383;48.766;9.270;2023-07-31T08:22:43;23.30;60.00
802;DHT22;383;48.766;9.270;2023-07-31T08:25:10;23.40;60.50
802;DHT22;383;48.766;9.270;2023-07-31T08:27:36;23.20;59.60
802;DHT22;383;48.766;9.270;2023-07-31T08:30:04;23.20;59.60
802;DHT22;383;48.766;9.270;2023-07-31T08:32:32;23.20;59.20
802;DHT22;383;48.766;9.270;2023-07-31T08:34:59;23.30;59.60
802;DHT22;383;48.766;9.270;2023-07-31T08:37:25;23.50;59.50
802;DHT22;383;48.766;9.270;2023-07-31T08:39:52;23.60;58.70
802;DHT22;383;48.766;9.270;2023-07-31T08:42:20;23.70;58.70
802;DHT22;383;48.766;9.270;2023-07-31T08:44:47;23.90;58.30
802;DHT22;383;48.766;9.270;2023-07-31T08:47:16;23.90;58.10
802;DHT22;383;48.766;9.270;2023-07-31T08:49:46;24.20;57.80
802;DHT22;383;48.766;9.270;2023-07-31T08:52:13;24.30;56.50
802;DHT22;383;48.766;9.270;2023-07-31T08:54:40;24.40;57.70
802;DHT22;383;48.766;9.270;2023-07-31T08:57:07;24.70;57.20
802;DHT22;383;48.766;9.270;2023-07-31T08:59:35;24.90;56.50
802;DHT22;383;48.766;9.270;2023-07-31T09:02:05;25.00;54.70
802;DHT22;383;48.766;9.270;2023-07-31T09:04:32;25.20;55.40
802;DHT22;383;48.766;9.270;2023-07-31T09:07:02;25.30;55.00
802;DHT22;383;48.766;9.270;2023-07-31T09:09:29;25.40;54.60
802;DHT22;383;48.766;9.270;2023-07-31T09:11:57;25.40;53.80
802;DHT22;383;48.766;9.270;2023-07-31T09:14:25;25.10;54.00
802;DHT22;383;48.766;9.270;2023-07-31T09:16:53;24.90;55.70
802;DHT22;383;48.766;9.270;2023-07-31T09:19:25;24.90;56.10
802;DHT22;383;48.766;9.270;2023-07-31T09:21:52;24.70;55.60
802;DHT22;383;48.766;9.270;2023-07-31T09:24:27;24.60;56.10
802;DHT22;383;48.766;9.270;2023-07-31T09:26:54;24.80;57.50
802;DHT22;383;48.766;9.270;2023-07-31T09:29:22;24.70;55.90
802;DHT22;383;48.766;9.270;2023-07-31T09:31:50;24.70;56.10
802;DHT22;383;48.766;9.270;2023-07-31T09:34:17;24.70;55.40
802;DHT22;383;48.766;9.270;2023-07-31T09:36:45;24.60;55.40
802;DHT22;383;48.766;9.270;2023-07-31T09:39:13;24.70;55.90
802;DHT22;383;48.766;9.270;2023-07-31T09:41:43;24.80;55.40
802;DHT22;383;48.766;9.270;2023-07-31T09:44:10;24.80;56.00
802;DHT22;383;48.766;9.270;2023-07-31T09:46:37;24.80;55.70
802;DHT22;383;48.766;9.270;2023-07-31T09:49:08;25.00;55.70
802;DHT22;383;48.766;9.270;2023-07-31T09:51:36;25.00;55.40
802;DHT22;383;48.766;9.270;2023-07-31T09:54:13;25.10;55.90
802;DHT22;383;48.766;9.270;2023-07-31T09:56:47;25.00;54.40
802;DHT22;383;48.766;9.270;2023-07-31T09:59:15;24.80;54.70
802;DHT22;383;48.766;9.270;2023-07-31T10:01:43;24.40;56.70
802;DHT22;383;48.766;9.270;2023-07-31T10:04:12;24.50;56.70
802;DHT22;383;48.766;9.270;2023-07-31T10:06:40;24.40;56.60
802;DHT22;383;48.766;9.270;2023-07-31T10:09:09;24.50;56.00
802;DHT22;383;48.766;9.270;2023-07-31T10:11:41;24.40;57.40
802;DHT22;383;48.766;9.270;2023-07-31T10:14:11;24.50;57.40
802;DHT22;383;48.766;9.270;2023-07-31T10:16:38;24.70;56.50
802;DHT22;383;48.766;9.270;2023-07-31T10:19:06;24.60;57.60
802;DHT22;383;48.766;9.270;2023-07-31T10:21:33;24.60;56.20
802;DHT22;383;48.766;9.270;2023-07-31T10:24:03;24.60;57.50
802;DHT22;383;48.766;9.270;2023-07-31T10:26:31;24.80;56.90
802;DHT22;383;48.766;9.270;2023-07-31T10:28:58;24.70;56.70
802;DHT22;383;48.766;9.270;2023-07-31T10:31:27;24.90;57.00
802;DHT22;383;48.766;9.270;2023-07-31T10:33:54;24.90;55.90
802;DHT22;383;48.766;9.270;2023-07-31T10:36:22;24.90;55.50
802;DHT22;383;48.766;9.270;2023-07-31T10:38:49;25.00;56.20
802;DHT22;383;48.766;9.270;2023-07-31T10:41:16;25.20;55.90
802;DHT22;383;48.766;9.270;2023-07-31T10:43:42;25.50;52.60
802;DHT22;383;48.766;9.270;2023-07-31T10:46:12;25.70;54.60
802;DHT22;383;48.766;9.270;2023-07-31T10:48:41;25.80;54.30
802;DHT22;383;48.766;9.270;2023-07-31T10:51:08;25.80;53.50
802;DHT22;383;48.766;9.270;2023-07-31T10:53:36;25.90;54.00
802;DHT22;383;48.766;9.270;2023-07-31T10:56:04;25.80;54.00
802;DHT22;383;48.766;9.270;2023-07-31T10:58:31;26.10;53.50
802;DHT22;383;48.766;9.270;2023-07-31T11:00:59;26.30;53.30
802;DHT22;383;48.766;9.270;2023-07-31T11:03:41;26.30;52.50
802;DHT22;383;48.766;9.270;2023-07-31T11:06:09;26.30;53.10
802;DHT22;383;48.766;9.270;2023-07-31T11:08:42;26.30;51.50
802;DHT22;383;48.766;9.270;2023-07-31T11:11:10;26.30;53.60
802;DHT22;383;48.766;9.270;2023-07-31T11:13:42;26.30;53.00
802;DHT22;383;48.766;9.270;2023-07-31T11:16:09;26.30;52.90
802;DHT22;383;48.766;9.270;2023-07-31T11:18:38;26.40;52.00
802;DHT22;383;48.766;9.270;2023-07-31T11:21:05;26.40;51.60
802;DHT22;383;48.766;9.270;2023-07-31T11:23:36;26.20;51.90
802;DHT22;383;48.766;9.270;2023-07-31T11:26:04;26.10;52.10
802;DHT22;383;48.766;9.270;2023-07-31T11:28:32;26.00;53.50
802;DHT22;383;48.766;9.270;2023-07-31T11:31:00;25.70;52.60
802;DHT22;383;48.766;9.270;2023-07-31T11:33:27;25.30;53.10
802;DHT22;383;48.766;9.270;2023-07-31T11:35:57;25.40;53.60
802;DHT22;383;48.766;9.270;2023-07-31T11:38:25;25.60;53.30
802;DHT22;383;48.766;9.270;2023-07-31T11:40:53;25.60;53.00
802;DHT22;383;48.766;9.270;2023-07-31T11:43:21;25.50;52.90
802;DHT22;383;48.766;9.270;2023-07-31T11:45:48;25.30;52.80
802;DHT22;383;48.766;9.270;2023-07-31T11:48:22;25.30;54.50
802;DHT22;383;48.766;9.270;2023-07-31T11:50:50;25.20;54.50
802;DHT22;383;48.766;9.270;2023-07-31T11:53:20;25.30;53.90
802;DHT22;383;48.766;9.270;2023-07-31T11:55:49;25.00;54.60
802;DHT22;383;48.766;9.270;2023-07-31T11:58:18;25.00;54.50
802;DHT22;383;48.766;9.270;2023-07-31T12:00:45;25.10;55.70
802;DHT22;383;48.766;9.270;2023-07-31T12:03:12;25.20;56.10
802;DHT22;383;48.766;9.270;2023-07-31T12:05:39;25.40;55.60
802;DHT22;383;48.766;9.270;2023-07-31T12:08:10;25.60;55.50
802;DHT22;383;48.766;9.270;2023-07-31T12:10:38;25.70;55.10
802;DHT22;383;48.766;9.270;2023-07-31T12:13:07;25.70;54.30
802;DHT22;383;48.766;9.270;2023-07-31T12:15:39;25.70;54.60
802;DHT22;383;48.766;9.270;2023-07-31T12:18:08;25.80;53.60
802;DHT22;383;48.766;9.270;2023-07-31T12:20:39;25.70;53.60
802;DHT22;383;48.766;9.270;2023-07-31T12:23:07;25.70;54.70
802;DHT22;383;48.766;9.270;2023-07-31T12:25:34;25.90;54.30
802;DHT22;383;48.766;9.270;2023-07-31T12:28:05;25.70;55.00
802;DHT22;383;48.766;9.270;2023-07-31T12:30:38;25.50;54.90
802;DHT22;383;48.766;9.270;2023-07-31T12:33:07;25.40;55.00
802;DHT22;383;48.766;9.270;2023-07-31T12:35:41;25.40;54.90
802;DHT22;383;48.766;9.270;2023-07-31T12:38:08;25.30;55.60
802;DHT22;383;48.766;9.270;2023-07-31T12:40:36;25.30;56.10
802;DHT22;383;48.766;9.270;2023-07-31T12:43:03;25.30;56.10
802;DHT22;383;48.766;9.270;2023-07-31T12:45:30;25.40;55.60
802;DHT22;383;48.766;9.270;2023-07-31T12:47:59;25.40;55.60
802;DHT22;383;48.766;9.270;2023-07-31T12:50:26;25.40;56.10
802;DHT22;383;48.766;9.270;2023-07-31T12:52:53;25.40;55.60
802;DHT22;383;48.766;9.270;2023-07-31T12:55:20;25.50;56.00
802;DHT22;383;48.766;9.270;2023-07-31T12:57:47;25.40;56.00
802;DHT22;383;48.766;9.270;2023-07-31T13:00:14;25.50;55.10
802;DHT22;383;48.766;9.270;2023-07-31T13:02:40;25.50;55.50
802;DHT22;383;48.766;9.270;2023-07-31T13:05:09;25.60;56.00
802;DHT22;383;48.766;9.270;2023-07-31T13:07:36;25.50;55.90
802;DHT22;383;48.766;9.270;2023-07-31T13:10:03;25.40;55.50
802;DHT22;383;48.766;9.270;2023-07-31T13:12:30;25.40;56.20
802;DHT22;383;48.766;9.270;2023-07-31T13:14:56;25.20;55.40
802;DHT22;383;48.766;9.270;2023-07-31T13:17:23;25.10;55.10
802;DHT22;383;48.766;9.270;2023-07-31T13:19:50;25.10;56.20
802;DHT22;383;48.766;9.270;2023-07-31T13:22:18;25.10;56.60
802;DHT22;383;48.766;9.270;2023-07-31T13:24:45;25.10;56.20
802;DHT22;383;48.766;9.270;2023-07-31T13:27:11;25.10;57.50
802;DHT22;383;48.766;9.270;2023-07-31T13:29:38;25.20;56.90
802;DHT22;383;48.766;9.270;2023-07-31T13:32:05;25.40;57.70
802;DHT22;383;48.766;9.270;2023-07-31T13:34:32;25.50;57.10
802;DHT22;383;48.766;9.270;2023-07-31T13:36:58;25.70;55.20
802;DHT22;383;48.766;9.270;2023-07-31T13:39:26;26.00;56.20
802;DHT22;383;48.766;9.270;2023-07-31T13:41:53;26.40;55.90
802;DHT22;383;48.766;9.270;2023-07-31T13:44:20;26.80;55.20
802;DHT22;383;48.766;9.270;2023-07-31T13:46:47;27.10;52.00
802;DHT22;383;48.766;9.270;2023-07-31T13:49:14;27.10;53.00
802;DHT22;383;48.766;9.270;2023-07-31T13:51:41;27.30;53.60
802;DHT22;383;48.766;9.270;2023-07-31T13:54:07;27.50;53.80
802;DHT22;383;48.766;9.270;2023-07-31T13:56:35;27.70;52.90
802;DHT22;383;48.766;9.270;2023-07-31T13:59:02;27.90;51.60
802;DHT22;383;48.766;9.270;2023-07-31T14:01:29;28.00;51.60
802;DHT22;383;48.766;9.270;2023-07-31T14:03:55;27.80;50.40
802;DHT22;383;48.766;9.270;2023-07-31T14:06:22;27.80;50.30
802;DHT22;383;48.766;9.270;2023-07-31T14:08:49;27.70;50.00
802;DHT22;383;48.766;9.270;2023-07-31T14:11:16;27.40;51.50
802;DHT22;383;48.766;9.270;2023-07-31T14:13:44;27.20;51.30
802;DHT22;383;48.766;9.270;2023-07-31T14:16:10;27.10;52.50
802;DHT22;383;48.766;9.270;2023-07-31T14:18:37;27.00;52.40
802;DHT22;383;48.766;9.270;2023-07-31T14:21:07;27.00;53.40
802;DHT22;383;48.766;9.270;2023-07-31T14:23:34;27.00;52.50
802;DHT22;383;48.766;9.270;2023-07-31T14:26:01;27.00;53.80
802;DHT22;383;48.766;9.270;2023-07-31T14:28:27;26.70;52.60
802;DHT22;383;48.766;9.270;2023-07-31T14:30:55;26.30;54.30
802;DHT22;383;48.766;9.270;2023-07-31T14:33:22;26.10;54.40
802;DHT22;383;48.766;9.270;2023-07-31T14:35:49;26.10;54.30
802;DHT22;383;48.766;9.270;2023-07-31T14:38:15;26.10;54.60
802;DHT22;383;48.766;9.270;2023-07-31T14:40:42;26.20;55.10
802;DHT22;383;48.766;9.270;2023-07-31T14:43:09;26.30;54.90
802;DHT22;383;48.766;9.270;2023-07-31T14:45:36;26.30;54.10
802;DHT22;383;48.766;9.270;2023-07-31T14:48:04;26.10;54.90
802;DHT22;383;48.766;9.270;2023-07-31T14:50:31;26.10;55.20
802;DHT22;383;48.766;9.270;2023-07-31T14:52:58;26.10;56.50
802;DHT22;383;48.766;9.270;2023-07-31T14:55:25;26.40;56.60
802;DHT22;383;48.766;9.270;2023-07-31T14:57:51;26.60;55.10
802;DHT22;383;48.766;9.270;2023-07-31T15:00:18;26.70;55.10
802;DHT22;383;48.766;9.270;2023-07-31T15:02:45;26.80;55.10
802;DHT22;383;48.766;9.270;2023-07-31T15:05:13;26.90;54.00
802;DHT22;383;48.766;9.270;2023-07-31T15:07:40;27.00;54.30
802;DHT22;383;48.766;9.270;2023-07-31T15:10:07;27.20;54.00
802;DHT22;383;48.766;9.270;2023-07-31T15:12:34;27.20;50.90
802;DHT22;383;48.766;9.270;2023-07-31T15:15:03;27.30;51.50
802;DHT22;383;48.766;9.270;2023-07-31T15:17:30;27.30;51.30
802;DHT22;383;48.766;9.270;2023-07-31T15:19:57;27.50;51.40
802;DHT22;383;48.766;9.270;2023-07-31T15:22:26;27.70;51.20
802;DHT22;383;48.766;9.270;2023-07-31T15:24:52;27.60;50.80
802;DHT22;383;48.766;9.270;2023-07-31T15:27:19;27.50;51.30
802;DHT22;383;48.766;9.270;2023-07-31T15:29:46;27.40;51.20
802;DHT22;383;48.766;9.270;2023-07-31T15:32:12;27.30;51.30
802;DHT22;383;48.766;9.270;2023-07-31T15:34:39;27.20;51.50
802;DHT22;383;48.766;9.270;2023-07-31T15:37:06;27.30;50.80
802;DHT22;383;48.766;9.270;2023-07-31T15:39:34;27.40;51.30
802;DHT22;383;48.766;9.270;2023-07-31T15:42:01;27.70;51.30
802;DHT22;383;48.766;9.270;2023-07-31T15:44:27;27.90;50.30
802;DHT22;383;48.766;9.270;2023-07-31T15:46:54;28.10;50.20
802;DHT22;383;48.766;9.270;2023-07-31T15:49:21;28.20;48.90
802;DHT22;383;48.766;9.270;2023-07-31T15:51:48;28.30;50.00
802;DHT22;383;48.766;9.270;2023-07-31T15:54:14;28.30;49.40
802;DHT22;383;48.766;9.270;2023-07-31T15:56:42;28.20;49.70
802;DHT22;383;48.766;9.270;2023-07-31T15:59:09;28.30;49.70
802;DHT22;383;48.766;9.270;2023-07-31T16:01:36;28.30;49.50
802;DHT22;383;48.766;9.270;2023-07-31T16:04:03;28.30;49.80
802;DHT22;383;48.766;9.270;2023-07-31T16:06:29;28.30;49.70
802;DHT22;383;48.766;9.270;2023-07-31T16:08:56;28.30;49.50
802;DHT22;383;48.766;9.270;2023-07-31T16:11:23;28.30;49.90
802;DHT22;383;48.766;9.270;2023-07-31T16:13:51;28.20;49.70
802;DHT22;383;48.766;9.270;2023-07-31T16:16:17;28.00;50.80
802;DHT22;383;48.766;9.270;2023-07-31T16:18:45;27.90;49.70
802;DHT22;383;48.766;9.270;2023-07-31T16:21:12;27.80;50.80
802;DHT22;383;48.766;9.270;2023-07-31T16:23:38;27.70;50.00
802;DHT22;383;48.766;9.270;2023-07-31T16:26:05;27.80;50.40
802;DHT22;383;48.766;9.270;2023-07-31T16:28:32;27.80;50.80
802;DHT22;383;48.766;9.270;2023-07-31T16:31:00;27.70;51.00
802;DHT22;383;48.766;9.270;2023-07-31T16:33:27;27.50;51.20
802;DHT22;383;48.766;9.270;2023-07-31T16:35:53;27.30;51.50